Stations météo

réclame
Mon MeteoGroup
Inverness/Dalcross, Grande-Bretagne (3059): Température de l'air & dewpoint: 18.01.2018 09:00:00 - 24.01.2018 09:00:00 (GMT)Inverness/Dalcross, Grande-Bretagne (3059): Vitesse du vent: 18.01.2018 09:00:00 - 24.01.2018 09:00:00 (GMT)Inverness/Dalcross, Grande-Bretagne (3059): Direction du vent: 18.01.2018 09:00:00 - 24.01.2018 09:00:00 (GMT)Inverness/Dalcross, Grande-Bretagne (3059): visibility: 18.01.2018 09:00:00 - 24.01.2018 09:00:00 (GMT)
Date & Time tt [°C] td [°C] ff [km/h] ff [knt] dd vv [km]
24.01.2018 09:00:00 5,0 2,0 41 22 SW 10
24.01.2018 08:00:00 5,0 4,0 52 28 WSW 10
24.01.2018 07:00:00 6,0 5,0 41 22 WSW 10
24.01.2018 06:00:00 6,0 5,0 16 9 WSW 10
24.01.2018 05:00:00 - - - - - -
24.01.2018 04:00:00 5,0 4,0 11 6 E 10
24.01.2018 03:00:00 5,0 4,0 16 9 SE 10
24.01.2018 02:00:00 6,0 2,0 28 15 SW 10
24.01.2018 01:00:00 4,0 2,0 2 1 - 10
24.01.2018 00:00:00 5,0 3,0 26 14 SW 10
23.01.2018 23:00:00 5,0 2,0 28 15 SW 10
23.01.2018 22:00:00 4,0 2,0 28 15 WSW 10
23.01.2018 21:00:00 4,0 2,0 29 16 SW 10
23.01.2018 20:00:00 6,0 4,0 26 14 WSW 10
23.01.2018 19:00:00 6,0 3,0 35 19 WSW 10
23.01.2018 18:00:00 7,0 5,0 34 18 WSW 10
23.01.2018 17:00:00 7,0 5,0 26 14 WSW 10
23.01.2018 16:00:00 7,0 5,0 26 14 SW 10
23.01.2018 15:00:00 8,0 6,0 21 11 WSW 10
23.01.2018 14:00:00 8,0 6,0 34 18 WSW 10
23.01.2018 13:00:00 9,0 8,0 37 20 WSW 10
23.01.2018 12:00:00 9,0 8,0 16 9 WSW 10
23.01.2018 11:00:00 8,0 8,0 9 5 W 10
23.01.2018 10:00:00 7,0 7,0 9 5 SW 10
23.01.2018 09:00:00 7,0 6,0 5 3 - 10
23.01.2018 08:00:00 6,0 6,0 8 4 SSW 10
23.01.2018 07:00:00 7,0 6,0 9 5 WSW 10
23.01.2018 06:00:00 7,0 5,0 24 13 SW 10
23.01.2018 05:00:00 6,0 6,0 21 11 WSW 10
23.01.2018 04:00:00 7,0 5,0 15 8 SW 10
23.01.2018 03:00:00 8,0 4,0 29 16 SW 10
23.01.2018 02:00:00 8,0 4,0 4 2 - 10
23.01.2018 01:00:00 7,0 5,0 11 6 SSW 10
23.01.2018 00:00:00 7,0 5,0 21 11 SW 10
22.01.2018 23:00:00 6,0 4,0 21 11 SW 10
22.01.2018 22:00:00 6,0 3,0 8 4 WSW 10
22.01.2018 21:00:00 6,0 3,0 37 20 SW 10
22.01.2018 20:00:00 6,0 3,0 11 6 SSW 10
22.01.2018 19:00:00 6,0 4,0 18 10 SW 10
22.01.2018 18:00:00 6,0 4,0 26 14 WSW 10
22.01.2018 17:00:00 7,0 4,0 16 9 WSW 10
22.01.2018 16:00:00 7,0 3,0 26 14 WSW 10
22.01.2018 15:00:00 7,0 3,0 37 20 WSW 10
22.01.2018 14:00:00 7,0 4,0 24 13 WSW 10
22.01.2018 13:00:00 7,0 5,0 21 11 WSW 10
22.01.2018 12:00:00 7,0 4,0 26 14 WSW 10
22.01.2018 11:00:00 7,0 5,0 34 18 WSW 10
22.01.2018 10:00:00 6,0 4,0 35 19 WSW 10
22.01.2018 09:00:00 5,0 4,0 26 14 WSW 10
22.01.2018 08:00:00 5,0 4,0 22 12 SW 10
22.01.2018 07:00:00 5,0 4,0 22 12 WSW 10
22.01.2018 06:00:00 5,0 3,0 21 11 SW 10
22.01.2018 05:00:00 4,0 3,0 18 10 SW 10
22.01.2018 04:00:00 4,0 3,0 22 12 SW 10
22.01.2018 03:00:00 4,0 3,0 16 9 SW 10
22.01.2018 02:00:00 5,0 3,0 18 10 SW 10
22.01.2018 01:00:00 4,0 3,0 22 12 WSW 10
22.01.2018 00:00:00 4,0 3,0 15 8 WSW 10
21.01.2018 23:00:00 4,0 3,0 13 7 WSW 10
21.01.2018 22:00:00 4,0 3,0 21 11 WSW 10
21.01.2018 21:00:00 4,0 2,0 21 11 WSW 10
21.01.2018 20:00:00 2,0 1,0 11 6 WSW 10
21.01.2018 19:00:00 2,0 0,0 2 1 - 10
21.01.2018 18:00:00 3,0 0,0 21 11 SSW 10
21.01.2018 17:00:00 2,0 0,0 18 10 S 10
21.01.2018 16:00:00 2,0 -1,0 37 20 S 10
21.01.2018 15:00:00 2,0 -1,0 46 25 S 3,5
21.01.2018 14:00:00 3,0 -3,0 8 4 - 10
21.01.2018 13:00:00 3,0 -5,0 11 6 WSW 10
21.01.2018 12:00:00 1,0 -3,0 4 2 - 10
21.01.2018 11:00:00 -2,0 -3,0 11 6 - 10
21.01.2018 10:00:00 -3,0 -3,0 4 2 - 10
21.01.2018 09:00:00 -6,0 -6,0 2 1 - 10
21.01.2018 08:00:00 -6,0 -6,0 4 2 S 10
21.01.2018 07:00:00 -7,0 -8,0 2 1 - 10
21.01.2018 06:00:00 -5,0 -5,0 4 2 SSE 10
21.01.2018 05:00:00 -5,0 -5,0 4 2 SSW 10
21.01.2018 04:00:00 -6,0 -7,0 9 5 WSW 10
21.01.2018 03:00:00 -4,0 -5,0 8 4 WSW 10
21.01.2018 02:00:00 -4,0 -5,0 11 6 WSW 10
21.01.2018 01:00:00 -5,0 -5,0 8 4 WSW 10
21.01.2018 00:00:00 -4,0 -5,0 13 7 WSW 10
20.01.2018 23:00:00 -4,0 -5,0 15 8 WSW 10
20.01.2018 22:00:00 -4,0 -4,0 22 12 WSW 10
20.01.2018 21:00:00 -4,0 -5,0 15 8 WSW 10
20.01.2018 20:00:00 -4,0 -4,0 15 8 WSW 10
20.01.2018 19:00:00 -4,0 -4,0 16 9 WSW 10
20.01.2018 18:00:00 -3,0 -3,0 18 10 WSW 10
20.01.2018 17:00:00 -3,0 -3,0 15 8 WSW 10
20.01.2018 16:00:00 0,0 -2,0 16 9 WSW 10
20.01.2018 15:00:00 1,0 -1,0 16 9 SW 10
20.01.2018 14:00:00 1,0 -1,0 18 10 WSW 10
20.01.2018 13:00:00 0,0 -1,0 21 11 WSW 10
20.01.2018 12:00:00 0,0 -2,0 15 8 WSW 10
20.01.2018 11:00:00 0,0 -2,0 16 9 WSW 10
20.01.2018 10:00:00 -2,0 -2,0 9 5 SW 10
20.01.2018 09:00:00 -4,0 -5,0 13 7 WSW 10
20.01.2018 08:00:00 -4,0 -4,0 15 8 WSW 10
20.01.2018 07:00:00 -3,0 -4,0 15 8 WSW 10
20.01.2018 06:00:00 -2,0 -2,0 16 9 SW 10
20.01.2018 05:00:00 -2,0 -2,0 16 9 WSW 10
20.01.2018 04:00:00 -3,0 -3,0 18 10 SW 10
20.01.2018 03:00:00 -2,0 -2,0 11 6 WSW 10
20.01.2018 02:00:00 -1,0 -1,0 16 9 WSW 10
20.01.2018 01:00:00 -1,0 -1,0 13 7 WSW 10
20.01.2018 00:00:00 -1,0 -1,0 15 8 W 10
19.01.2018 23:00:00 -1,0 -1,0 9 5 WSW 10
19.01.2018 22:00:00 0,0 -1,0 18 10 W 10
19.01.2018 21:00:00 -1,0 -2,0 13 7 WSW 10
19.01.2018 20:00:00 -1,0 -1,0 13 7 SW 10
19.01.2018 19:00:00 0,0 0,0 22 12 WSW 10
19.01.2018 18:00:00 0,0 0,0 18 10 WSW 10
19.01.2018 17:00:00 1,0 -1,0 21 11 SW 10
19.01.2018 16:00:00 1,0 -1,0 18 10 SW 10
19.01.2018 15:00:00 1,0 -1,0 18 10 SW 10
19.01.2018 14:00:00 2,0 0,0 24 13 SW 10
19.01.2018 13:00:00 1,0 0,0 28 15 WSW 10
19.01.2018 12:00:00 1,0 0,0 15 8 SW 10
19.01.2018 11:00:00 1,0 0,0 21 11 WSW 10
19.01.2018 10:00:00 0,0 -1,0 11 6 SW 10
19.01.2018 09:00:00 0,0 -1,0 24 13 SW 10
19.01.2018 08:00:00 0,0 -1,0 21 11 SW 10
19.01.2018 07:00:00 -2,0 -2,0 15 8 SW 10
19.01.2018 06:00:00 0,0 0,0 24 13 WSW 5
19.01.2018 05:00:00 0,0 -1,0 15 8 SW 10
19.01.2018 04:00:00 0,0 0,0 16 9 WSW 10
19.01.2018 03:00:00 0,0 0,0 18 10 WSW 10
19.01.2018 02:00:00 0,0 0,0 21 11 SW 3,0
19.01.2018 01:00:00 0,0 0,0 16 9 SW 10
19.01.2018 00:00:00 0,0 0,0 22 12 WSW 10
18.01.2018 23:00:00 1,0 1,0 16 9 SW 10
18.01.2018 22:00:00 1,0 0,0 24 13 WSW 10
18.01.2018 21:00:00 1,0 0,0 22 12 WSW 10
18.01.2018 20:00:00 0,0 -1,0 22 12 WSW 10
18.01.2018 19:00:00 0,0 -1,0 18 10 SW 10
18.01.2018 18:00:00 0,0 -1,0 11 6 SW 10
18.01.2018 17:00:00 1,0 0,0 16 9 WSW 10
18.01.2018 16:00:00 1,0 0,0 16 9 WSW 10
18.01.2018 15:00:00 2,0 0,0 26 14 WSW 10
18.01.2018 14:00:00 2,0 0,0 24 13 WSW 10
18.01.2018 13:00:00 3,0 0,0 21 11 WSW 10
18.01.2018 12:00:00 2,0 0,0 26 14 WSW 10
18.01.2018 11:00:00 2,0 0,0 13 7 SW 10
18.01.2018 10:00:00 0,0 -1,0 11 6 SW 10
18.01.2018 09:00:00 -1,0 -1,0 16 9 WSW 10

tt = Température de l'air
td = dewpoint
ff = Vitesse du vent
dd = Direction du vent
vv = visibility

stations d'obs. à proximité